sensor_id;sensor_type;location;lat;lon;timestamp;pressure;altitude;pressure_sealevel;temperature;humidity
9893;BME280;4985;49.092;8.542;2023-07-30T00:01:23;98834.63;;;23.11;49.34
9893;BME280;4985;49.092;8.542;2023-07-30T00:03:49;98829.25;;;23.11;49.32
9893;BME280;4985;49.092;8.542;2023-07-30T00:06:16;98837.03;;;23.13;49.32
9893;BME280;4985;49.092;8.542;2023-07-30T00:08:44;98831.59;;;23.08;49.31
9893;BME280;4985;49.092;8.542;2023-07-30T00:11:10;98839.97;;;23.11;49.30
9893;BME280;4985;49.092;8.542;2023-07-30T00:13:37;98827.37;;;23.12;49.30
9893;BME280;4985;49.092;8.542;2023-07-30T00:16:03;98827.37;;;23.12;49.28
9893;BME280;4985;49.092;8.542;2023-07-30T00:18:30;98827.37;;;23.12;49.28
9893;BME280;4985;49.092;8.542;2023-07-30T00:20:56;98828.19;;;23.12;49.29
9893;BME280;4985;49.092;8.542;2023-07-30T00:23:23;98844.53;;;23.11;49.32
9893;BME280;4985;49.092;8.542;2023-07-30T00:25:51;98848.03;;;23.11;49.30
9893;BME280;4985;49.092;8.542;2023-07-30T00:28:17;98841.84;;;23.11;49.32
9893;BME280;4985;49.092;8.542;2023-07-30T00:30:45;98856.09;;;23.11;49.29
9893;BME280;4985;49.092;8.542;2023-07-30T00:33:11;98865.75;;;23.12;49.27
9893;BME280;4985;49.092;8.542;2023-07-30T00:35:38;98869.50;;;23.11;49.25
9893;BME280;4985;49.092;8.542;2023-07-30T00:38:05;98871.38;;;23.11;49.22
9893;BME280;4985;49.092;8.542;2023-07-30T00:40:31;98870.31;;;23.12;49.21
9893;BME280;4985;49.092;8.542;2023-07-30T00:42:59;98875.69;;;23.12;49.20
9893;BME280;4985;49.092;8.542;2023-07-30T00:45:26;98883.75;;;23.12;49.16
9893;BME280;4985;49.092;8.542;2023-07-30T00:47:52;98887.25;;;23.12;49.16
9893;BME280;4985;49.092;8.542;2023-07-30T00:50:19;98884.22;;;23.09;49.14
9893;BME280;4985;49.092;8.542;2023-07-30T00:52:46;98884.56;;;23.12;49.13
9893;BME280;4985;49.092;8.542;2023-07-30T00:55:13;98882.94;;;23.11;49.12
9893;BME280;4985;49.092;8.542;2023-07-30T00:57:41;98885.63;;;23.11;49.13
9893;BME280;4985;49.092;8.542;2023-07-30T01:00:10;98888.31;;;23.11;49.12
9893;BME280;4985;49.092;8.542;2023-07-30T01:02:37;98892.59;;;23.12;49.11
9893;BME280;4985;49.092;8.542;2023-07-30T01:05:05;98885.63;;;23.11;49.11
9893;BME280;4985;49.092;8.542;2023-07-30T01:07:32;98894.50;;;23.12;49.10
9893;BME280;4985;49.092;8.542;2023-07-30T01:09:59;98894.50;;;23.12;49.09
9893;BME280;4985;49.092;8.542;2023-07-30T01:12:26;98895.28;;;23.12;49.10
9893;BME280;4985;49.092;8.542;2023-07-30T01:14:55;98893.69;;;23.11;49.09
9893;BME280;4985;49.092;8.542;2023-07-30T01:17:23;98896.37;;;23.11;49.10
9893;BME280;4985;49.092;8.542;2023-07-30T01:19:52;98891.47;;;23.08;49.08
9893;BME280;4985;49.092;8.542;2023-07-30T01:22:21;98900.09;;;23.10;49.10
9893;BME280;4985;49.092;8.542;2023-07-30T01:24:48;98900.09;;;23.10;49.09
9893;BME280;4985;49.092;8.542;2023-07-30T01:27:19;98898.25;;;23.11;49.09
9893;BME280;4985;49.092;8.542;2023-07-30T01:29:52;98894.72;;;23.10;49.10
9893;BME280;4985;49.092;8.542;2023-07-30T01:32:25;98905.44;;;23.10;49.11
9893;BME280;4985;49.092;8.542;2023-07-30T01:34:52;98899.28;;;23.10;49.12
9893;BME280;4985;49.092;8.542;2023-07-30T01:37:21;98904.63;;;23.10;49.13
9893;BME280;4985;49.092;8.542;2023-07-30T01:39:49;98905.72;;;23.09;49.12
9893;BME280;4985;49.092;8.542;2023-07-30T01:42:16;98906.50;;;23.09;49.13
9893;BME280;4985;49.092;8.542;2023-07-30T01:44:43;98910.28;;;23.08;49.14
9893;BME280;4985;49.092;8.542;2023-07-30T01:47:09;98910.00;;;23.10;49.14
9893;BME280;4985;49.092;8.542;2023-07-30T01:49:36;98912.16;;;23.08;49.14
9893;BME280;4985;49.092;8.542;2023-07-30T01:52:03;98907.59;;;23.08;49.16
9893;BME280;4985;49.092;8.542;2023-07-30T01:54:31;98905.97;;;23.07;49.17
9893;BME280;4985;49.092;8.542;2023-07-30T01:56:57;98902.22;;;23.08;49.17
9893;BME280;4985;49.092;8.542;2023-07-30T01:59:24;98897.91;;;23.07;49.17
9893;BME280;4985;49.092;8.542;2023-07-30T02:01:50;98899.78;;;23.07;49.17
9893;BME280;4985;49.092;8.542;2023-07-30T02:04:17;98898.97;;;23.06;49.20
9893;BME280;4985;49.092;8.542;2023-07-30T02:06:43;98896.28;;;23.06;49.22
9893;BME280;4985;49.092;8.542;2023-07-30T02:09:10;98893.63;;;23.06;49.21
9893;BME280;4985;49.092;8.542;2023-07-30T02:11:38;98894.69;;;23.05;49.24
9893;BME280;4985;49.092;8.542;2023-07-30T02:14:04;98902.72;;;23.05;49.22
9893;BME280;4985;49.092;8.542;2023-07-30T02:16:31;98896.56;;;23.05;49.24
9893;BME280;4985;49.092;8.542;2023-07-30T02:18:57;98894.94;;;23.04;49.24
9893;BME280;4985;49.092;8.542;2023-07-30T02:21:24;98893.06;;;23.04;49.24
9893;BME280;4985;49.092;8.542;2023-07-30T02:23:51;98896.00;;;23.03;49.26
9893;BME280;4985;49.092;8.542;2023-07-30T02:26:17;98888.75;;;23.03;49.23
9893;BME280;4985;49.092;8.542;2023-07-30T02:28:45;98900.31;;;23.04;49.25
9893;BME280;4985;49.092;8.542;2023-07-30T02:31:12;98896.81;;;23.03;49.24
9893;BME280;4985;49.092;8.542;2023-07-30T02:33:38;98893.31;;;23.03;49.24
9893;BME280;4985;49.092;8.542;2023-07-30T02:36:05;98900.31;;;23.04;49.22
9893;BME280;4985;49.092;8.542;2023-07-30T02:38:31;98901.38;;;23.03;49.23
9893;BME280;4985;49.092;8.542;2023-07-30T02:40:58;98905.69;;;23.04;49.22
9893;BME280;4985;49.092;8.542;2023-07-30T02:43:24;98898.69;;;23.03;49.20
9893;BME280;4985;49.092;8.542;2023-07-30T02:45:52;98912.91;;;23.03;49.21
9893;BME280;4985;49.092;8.542;2023-07-30T02:48:19;98904.88;;;23.03;49.20
9893;BME280;4985;49.092;8.542;2023-07-30T02:50:45;98903.25;;;23.02;49.18
9893;BME280;4985;49.092;8.542;2023-07-30T02:53:12;98910.22;;;23.03;49.18
9893;BME280;4985;49.092;8.542;2023-07-30T02:55:38;98916.41;;;23.04;49.17
9893;BME280;4985;49.092;8.542;2023-07-30T02:58:05;98907.56;;;23.03;49.16
9893;BME280;4985;49.092;8.542;2023-07-30T03:00:32;98904.88;;;23.03;49.15
9893;BME280;4985;49.092;8.542;2023-07-30T03:02:59;98902.44;;;23.02;49.15
9893;BME280;4985;49.092;8.542;2023-07-30T03:05:26;98898.94;;;23.01;49.14
9893;BME280;4985;49.092;8.542;2023-07-30T03:07:53;98907.56;;;23.03;49.13
9893;BME280;4985;49.092;8.542;2023-07-30T03:10:19;98918.28;;;23.03;49.13
9893;BME280;4985;49.092;8.542;2023-07-30T03:12:46;98911.03;;;23.04;49.12
9893;BME280;4985;49.092;8.542;2023-07-30T03:15:13;98916.41;;;23.04;49.12
9893;BME280;4985;49.092;8.542;2023-07-30T03:17:39;98907.56;;;23.03;49.13
9893;BME280;4985;49.092;8.542;2023-07-30T03:20:08;98905.38;;;23.00;49.13
9893;BME280;4985;49.092;8.542;2023-07-30T03:22:35;98907.56;;;23.03;49.12
9893;BME280;4985;49.092;8.542;2023-07-30T03:25:01;98911.03;;;23.04;49.13
9893;BME280;4985;49.092;8.542;2023-07-30T03:27:28;98908.63;;;23.02;49.12
9893;BME280;4985;49.092;8.542;2023-07-30T03:29:55;98910.22;;;23.03;49.11
9893;BME280;4985;49.092;8.542;2023-07-30T03:32:21;98919.34;;;23.02;49.11
9893;BME280;4985;49.092;8.542;2023-07-30T03:34:48;98915.59;;;23.03;49.11
9893;BME280;4985;49.092;8.542;2023-07-30T03:37:15;98918.28;;;23.03;49.12
9893;BME280;4985;49.092;8.542;2023-07-30T03:39:42;98913.16;;;23.02;49.13
9893;BME280;4985;49.092;8.542;2023-07-30T03:42:09;98919.34;;;23.02;49.12
9893;BME280;4985;49.092;8.542;2023-07-30T03:44:35;98922.03;;;23.02;49.12
9893;BME280;4985;49.092;8.542;2023-07-30T03:47:02;98924.72;;;23.02;49.12
9893;BME280;4985;49.092;8.542;2023-07-30T03:49:29;98930.09;;;23.02;49.12
9893;BME280;4985;49.092;8.542;2023-07-30T03:51:55;98935.47;;;23.02;49.12
9893;BME280;4985;49.092;8.542;2023-07-30T03:54:23;98933.84;;;23.01;49.12
9893;BME280;4985;49.092;8.542;2023-07-30T03:56:50;98933.84;;;23.01;49.12
9893;BME280;4985;49.092;8.542;2023-07-30T03:59:16;98935.72;;;23.01;49.13
9893;BME280;4985;49.092;8.542;2023-07-30T04:01:43;98934.91;;;23.00;49.13
9893;BME280;4985;49.092;8.542;2023-07-30T04:04:09;98937.59;;;23.00;49.15
9893;BME280;4985;49.092;8.542;2023-07-30T04:06:36;98933.28;;;22.99;49.17
9893;BME280;4985;49.092;8.542;2023-07-30T04:09:02;98941.34;;;22.99;49.17
9893;BME280;4985;49.092;8.542;2023-07-30T04:11:31;98947.75;;;22.98;49.17
9893;BME280;4985;49.092;8.542;2023-07-30T04:13:57;98945.06;;;22.98;49.19
9893;BME280;4985;49.092;8.542;2023-07-30T04:16:24;98943.44;;;22.97;49.20
9893;BME280;4985;49.092;8.542;2023-07-30T04:18:50;98942.63;;;22.97;49.20
9893;BME280;4985;49.092;8.542;2023-07-30T04:21:17;98945.56;;;22.95;49.20
9893;BME280;4985;49.092;8.542;2023-07-30T04:23:43;98948.81;;;22.97;49.20
9893;BME280;4985;49.092;8.542;2023-07-30T04:26:10;98947.19;;;22.96;49.19
9893;BME280;4985;49.092;8.542;2023-07-30T04:28:38;98949.87;;;22.96;49.19
9893;BME280;4985;49.092;8.542;2023-07-30T04:31:04;98952.56;;;22.96;49.19
9893;BME280;4985;49.092;8.542;2023-07-30T04:33:31;98962.50;;;22.95;49.19
9893;BME280;4985;49.092;8.542;2023-07-30T04:35:58;98963.28;;;22.96;49.20
9893;BME280;4985;49.092;8.542;2023-07-30T04:38:25;98959.00;;;22.95;49.20
9893;BME280;4985;49.092;8.542;2023-07-30T04:40:51;98967.03;;;22.95;49.20
9893;BME280;4985;49.092;8.542;2023-07-30T04:43:18;98969.72;;;22.95;49.19
9893;BME280;4985;49.092;8.542;2023-07-30T04:45:46;98970.78;;;22.94;49.20
9893;BME280;4985;49.092;8.542;2023-07-30T04:48:12;98985.84;;;22.95;49.21
9893;BME280;4985;49.092;8.542;2023-07-30T04:50:39;98980.47;;;22.95;49.23
9893;BME280;4985;49.092;8.542;2023-07-30T04:53:07;98976.97;;;22.94;49.22
9893;BME280;4985;49.092;8.542;2023-07-30T04:55:34;98982.34;;;22.94;49.22
9893;BME280;4985;49.092;8.542;2023-07-30T04:58:00;98971.84;;;22.93;49.23
9893;BME280;4985;49.092;8.542;2023-07-30T05:00:27;98974.28;;;22.94;49.21
9893;BME280;4985;49.092;8.542;2023-07-30T05:02:55;98975.09;;;22.95;49.20
9893;BME280;4985;49.092;8.542;2023-07-30T05:05:22;98972.41;;;22.95;49.19
9893;BME280;4985;49.092;8.542;2023-07-30T05:07:48;98977.78;;;22.95;49.19
9893;BME280;4985;49.092;8.542;2023-07-30T05:10:15;98975.09;;;22.95;49.18
9893;BME280;4985;49.092;8.542;2023-07-30T05:12:42;98970.78;;;22.94;49.17
9893;BME280;4985;49.092;8.542;2023-07-30T05:15:08;98974.03;;;22.96;49.15
9893;BME280;4985;49.092;8.542;2023-07-30T05:17:35;98978.59;;;22.95;49.14
9893;BME280;4985;49.092;8.542;2023-07-30T05:20:04;98988.53;;;22.95;49.13
9893;BME280;4985;49.092;8.542;2023-07-30T05:22:31;98990.94;;;22.97;49.12
9893;BME280;4985;49.092;8.542;2023-07-30T05:24:57;98984.78;;;22.96;49.11
9893;BME280;4985;49.092;8.542;2023-07-30T05:27:24;98988.53;;;22.95;49.11
9893;BME280;4985;49.092;8.542;2023-07-30T05:29:53;98998.44;;;22.94;49.14
9893;BME280;4985;49.092;8.542;2023-07-30T05:32:20;98991.19;;;22.95;49.15
9893;BME280;4985;49.092;8.542;2023-07-30T05:34:46;98989.03;;;22.92;49.17
9893;BME280;4985;49.092;8.542;2023-07-30T05:37:14;98988.53;;;22.95;49.14
9893;BME280;4985;49.092;8.542;2023-07-30T05:39:41;98981.53;;;22.94;49.15
9893;BME280;4985;49.092;8.542;2023-07-30T05:42:07;98990.38;;;22.94;49.14
9893;BME280;4985;49.092;8.542;2023-07-30T05:44:34;98979.66;;;22.94;49.16
9893;BME280;4985;49.092;8.542;2023-07-30T05:47:00;98971.59;;;22.94;49.15
9893;BME280;4985;49.092;8.542;2023-07-30T05:49:27;98968.91;;;22.94;49.17
9893;BME280;4985;49.092;8.542;2023-07-30T05:51:53;98955.50;;;22.94;49.16
9893;BME280;4985;49.092;8.542;2023-07-30T05:54:21;98957.94;;;22.96;49.15
9893;BME280;4985;49.092;8.542;2023-07-30T05:56:48;98964.34;;;22.95;49.16
9893;BME280;4985;49.092;8.542;2023-07-30T05:59:14;98971.34;;;22.96;49.16
9893;BME280;4985;49.092;8.542;2023-07-30T06:01:41;98985.03;;;22.94;49.16
9893;BME280;4985;49.092;8.542;2023-07-30T06:04:07;98984.22;;;22.94;49.18
9893;BME280;4985;49.092;8.542;2023-07-30T06:06:34;98985.03;;;22.94;49.19
9893;BME280;4985;49.092;8.542;2023-07-30T06:09:01;98981.53;;;22.94;49.20
9893;BME280;4985;49.092;8.542;2023-07-30T06:11:28;98986.09;;;22.93;49.22
9893;BME280;4985;49.092;8.542;2023-07-30T06:13:55;98978.03;;;22.93;49.24
9893;BME280;4985;49.092;8.542;2023-07-30T06:16:22;98980.72;;;22.93;49.24
9893;BME280;4985;49.092;8.542;2023-07-30T06:18:49;98988.53;;;22.95;49.25
9893;BME280;4985;49.092;8.542;2023-07-30T06:21:15;98992.25;;;22.94;49.26
9893;BME280;4985;49.092;8.542;2023-07-30T06:23:42;99001.38;;;22.93;49.30
9893;BME280;4985;49.092;8.542;2023-07-30T06:26:08;98999.75;;;22.92;49.34
9893;BME280;4985;49.092;8.542;2023-07-30T06:28:36;98996.25;;;22.91;49.35
9893;BME280;4985;49.092;8.542;2023-07-30T06:31:03;98999.75;;;22.92;49.38
9893;BME280;4985;49.092;8.542;2023-07-30T06:33:30;99005.13;;;22.92;49.40
9893;BME280;4985;49.092;8.542;2023-07-30T06:35:57;98992.22;;;22.89;49.42
9893;BME280;4985;49.092;8.542;2023-07-30T06:38:24;98998.12;;;22.91;49.42
9893;BME280;4985;49.092;8.542;2023-07-30T06:40:50;98991.72;;;22.92;49.42
9893;BME280;4985;49.092;8.542;2023-07-30T06:43:17;98997.06;;;22.92;49.46
9893;BME280;4985;49.092;8.542;2023-07-30T06:45:44;99003.50;;;22.91;49.50
9893;BME280;4985;49.092;8.542;2023-07-30T06:48:11;99008.06;;;22.90;49.52
9893;BME280;4985;49.092;8.542;2023-07-30T06:50:38;99018.81;;;22.90;49.56
9893;BME280;4985;49.092;8.542;2023-07-30T06:53:04;99017.19;;;22.89;49.60
9893;BME280;4985;49.092;8.542;2023-07-30T06:55:31;99031.41;;;22.90;49.63
9893;BME280;4985;49.092;8.542;2023-07-30T06:57:57;99040.53;;;22.89;49.65
9893;BME280;4985;49.092;8.542;2023-07-30T07:00:24;99044.84;;;22.90;49.70
9893;BME280;4985;49.092;8.542;2023-07-30T07:02:52;99043.44;;;22.87;49.69
9893;BME280;4985;49.092;8.542;2023-07-30T07:05:18;99049.66;;;22.88;49.71
9893;BME280;4985;49.092;8.542;2023-07-30T07:07:45;99049.88;;;22.86;49.72
9893;BME280;4985;49.092;8.542;2023-07-30T07:10:12;99054.41;;;22.86;49.74
9893;BME280;4985;49.092;8.542;2023-07-30T07:12:39;99060.59;;;22.86;49.75
9893;BME280;4985;49.092;8.542;2023-07-30T07:15:06;99065.16;;;22.86;49.76
9893;BME280;4985;49.092;8.542;2023-07-30T07:17:33;99058.16;;;22.85;49.76
9893;BME280;4985;49.092;8.542;2023-07-30T07:20:01;99065.97;;;22.86;49.75
9893;BME280;4985;49.092;8.542;2023-07-30T07:22:29;99062.47;;;22.86;49.72
9893;BME280;4985;49.092;8.542;2023-07-30T07:24:56;99072.16;;;22.87;49.72
9893;BME280;4985;49.092;8.542;2023-07-30T07:27:22;99064.09;;;22.87;49.71
9893;BME280;4985;49.092;8.542;2023-07-30T07:29:49;99066.56;;;22.88;49.68
9893;BME280;4985;49.092;8.542;2023-07-30T07:32:16;99067.59;;;22.87;49.67
9893;BME280;4985;49.092;8.542;2023-07-30T07:34:45;99068.44;;;22.88;49.67
9893;BME280;4985;49.092;8.542;2023-07-30T07:37:13;99070.53;;;22.86;49.65
9893;BME280;4985;49.092;8.542;2023-07-30T07:39:42;99075.41;;;22.89;49.64
9893;BME280;4985;49.092;8.542;2023-07-30T07:42:08;99075.41;;;22.89;49.65
9893;BME280;4985;49.092;8.542;2023-07-30T07:44:35;99073.81;;;22.88;49.65
9893;BME280;4985;49.092;8.542;2023-07-30T07:47:02;99072.16;;;22.87;49.68
9893;BME280;4985;49.092;8.542;2023-07-30T07:49:29;99065.97;;;22.86;49.69
9893;BME280;4985;49.092;8.542;2023-07-30T07:51:56;99072.97;;;22.87;49.67
9893;BME280;4985;49.092;8.542;2023-07-30T07:54:24;99072.16;;;22.87;49.67
9893;BME280;4985;49.092;8.542;2023-07-30T07:56:50;99070.53;;;22.86;49.68
9893;BME280;4985;49.092;8.542;2023-07-30T07:59:17;99066.78;;;22.87;49.69
9893;BME280;4985;49.092;8.542;2023-07-30T08:01:43;99056.03;;;22.87;49.69
9893;BME280;4985;49.092;8.542;2023-07-30T08:04:10;99063.28;;;22.86;49.68
9893;BME280;4985;49.092;8.542;2023-07-30T08:06:36;99064.91;;;22.87;49.69
9893;BME280;4985;49.092;8.542;2023-07-30T08:09:03;99065.75;;;22.88;49.71
9893;BME280;4985;49.092;8.542;2023-07-30T08:11:31;99067.59;;;22.87;49.71
9893;BME280;4985;49.092;8.542;2023-07-30T08:13:58;99061.41;;;22.87;49.76
9893;BME280;4985;49.092;8.542;2023-07-30T08:16:24;99052.56;;;22.86;49.81
9893;BME280;4985;49.092;8.542;2023-07-30T08:18:51;99070.53;;;22.86;49.84
9893;BME280;4985;49.092;8.542;2023-07-30T08:21:18;99070.53;;;22.86;49.89
9893;BME280;4985;49.092;8.542;2023-07-30T08:23:45;99062.47;;;22.86;49.91
9893;BME280;4985;49.092;8.542;2023-07-30T08:26:12;99071.34;;;22.86;49.95
9893;BME280;4985;49.092;8.542;2023-07-30T08:28:40;99065.16;;;22.86;49.94
9893;BME280;4985;49.092;8.542;2023-07-30T08:31:07;99075.09;;;22.85;49.94
9893;BME280;4985;49.092;8.542;2023-07-30T08:33:33;99086.63;;;22.86;49.97
9893;BME280;4985;49.092;8.542;2023-07-30T08:36:00;99082.06;;;22.86;50.01
9893;BME280;4985;49.092;8.542;2023-07-30T08:38:28;99078.56;;;22.86;50.02
9893;BME280;4985;49.092;8.542;2023-07-30T08:40:54;99076.97;;;22.85;50.02
9893;BME280;4985;49.092;8.542;2023-07-30T08:43:21;99070.53;;;22.86;50.03
9893;BME280;4985;49.092;8.542;2023-07-30T08:45:49;99070.53;;;22.86;50.05
9893;BME280;4985;49.092;8.542;2023-07-30T08:48:15;99072.66;;;22.84;50.05
9893;BME280;4985;49.092;8.542;2023-07-30T08:50:42;99068.91;;;22.85;50.04
9893;BME280;4985;49.092;8.542;2023-07-30T08:53:10;99075.88;;;22.86;50.05
9893;BME280;4985;49.092;8.542;2023-07-30T08:55:38;99073.47;;;22.84;50.07
9893;BME280;4985;49.092;8.542;2023-07-30T08:58:07;99077.75;;;22.85;50.08
9893;BME280;4985;49.092;8.542;2023-07-30T09:00:36;99073.13;;;22.81;50.09
9893;BME280;4985;49.092;8.542;2023-07-30T09:03:06;99085.00;;;22.85;50.09
9893;BME280;4985;49.092;8.542;2023-07-30T09:05:33;99095.75;;;22.85;50.11
9893;BME280;4985;49.092;8.542;2023-07-30T09:08:00;99092.00;;;22.86;50.14
9893;BME280;4985;49.092;8.542;2023-07-30T09:10:26;99092.81;;;22.86;50.16
9893;BME280;4985;49.092;8.542;2023-07-30T09:12:53;99090.94;;;22.87;50.17
9893;BME280;4985;49.092;8.542;2023-07-30T09:15:29;99087.09;;;22.83;50.19
9893;BME280;4985;49.092;8.542;2023-07-30T09:17:56;99091.44;;;22.84;50.22
9893;BME280;4985;49.092;8.542;2023-07-30T09:20:24;99098.19;;;22.86;50.24
9893;BME280;4985;49.092;8.542;2023-07-30T09:22:51;99098.97;;;22.87;50.31
9893;BME280;4985;49.092;8.542;2023-07-30T09:25:18;99102.72;;;22.86;50.32
9893;BME280;4985;49.092;8.542;2023-07-30T09:27:47;99102.47;;;22.87;50.31
9893;BME280;4985;49.092;8.542;2023-07-30T09:30:14;99090.38;;;22.85;50.35
9893;BME280;4985;49.092;8.542;2023-07-30T09:32:41;99106.00;;;22.88;50.37
9893;BME280;4985;49.092;8.542;2023-07-30T09:35:09;99108.69;;;22.88;50.38
9893;BME280;4985;49.092;8.542;2023-07-30T09:37:38;99102.25;;;22.89;50.40
9893;BME280;4985;49.092;8.542;2023-07-30T09:40:06;99106.00;;;22.88;50.38
9893;BME280;4985;49.092;8.542;2023-07-30T09:42:34;99110.31;;;22.89;50.42
9893;BME280;4985;49.092;8.542;2023-07-30T09:45:05;99117.56;;;22.88;50.42
9893;BME280;4985;49.092;8.542;2023-07-30T09:47:33;99122.66;;;22.90;50.42
9893;BME280;4985;49.092;8.542;2023-07-30T09:50:01;99119.97;;;22.90;50.41
9893;BME280;4985;49.092;8.542;2023-07-30T09:52:29;99119.97;;;22.90;50.41
9893;BME280;4985;49.092;8.542;2023-07-30T09:54:57;99110.88;;;22.91;50.43
9893;BME280;4985;49.092;8.542;2023-07-30T09:57:24;99113.56;;;22.91;50.43
9893;BME280;4985;49.092;8.542;2023-07-30T09:59:50;99117.84;;;22.92;50.46
9893;BME280;4985;49.092;8.542;2023-07-30T10:02:18;99120.53;;;22.92;50.48
9893;BME280;4985;49.092;8.542;2023-07-30T10:04:48;99121.59;;;22.91;50.51
9893;BME280;4985;49.092;8.542;2023-07-30T10:07:19;99124.28;;;22.91;50.52
9893;BME280;4985;49.092;8.542;2023-07-30T10:09:46;99126.97;;;22.91;50.55
9893;BME280;4985;49.092;8.542;2023-07-30T10:12:21;99129.41;;;22.92;50.55
9893;BME280;4985;49.092;8.542;2023-07-30T10:14:48;99121.03;;;22.89;50.55
9893;BME280;4985;49.092;8.542;2023-07-30T10:17:16;99137.22;;;22.94;50.57
9893;BME280;4985;49.092;8.542;2023-07-30T10:19:46;99128.34;;;22.93;50.57
9893;BME280;4985;49.092;8.542;2023-07-30T10:22:21;99131.03;;;22.93;50.57
9893;BME280;4985;49.092;8.542;2023-07-30T10:25:06;99120.28;;;22.93;50.56
9893;BME280;4985;49.092;8.542;2023-07-30T10:27:41;99121.91;;;22.94;50.55
9893;BME280;4985;49.092;8.542;2023-07-30T10:30:13;99132.66;;;22.94;50.57
9893;BME280;4985;49.092;8.542;2023-07-30T10:32:41;99144.19;;;22.95;50.59
9893;BME280;4985;49.092;8.542;2023-07-30T10:35:08;99138.28;;;22.93;50.61
9893;BME280;4985;49.092;8.542;2023-07-30T10:37:34;99146.87;;;22.95;50.64
9893;BME280;4985;49.092;8.542;2023-07-30T10:40:15;99145.00;;;22.95;50.67
9893;BME280;4985;49.092;8.542;2023-07-30T10:42:43;99156.56;;;22.96;50.70
9893;BME280;4985;49.092;8.542;2023-07-30T10:45:10;99160.31;;;22.95;50.71
9893;BME280;4985;49.092;8.542;2023-07-30T10:47:37;99165.66;;;22.95;50.72
9893;BME280;4985;49.092;8.542;2023-07-30T10:50:04;99156.00;;;22.94;50.70
9893;BME280;4985;49.092;8.542;2023-07-30T10:52:31;99154.69;;;22.97;50.70
9893;BME280;4985;49.092;8.542;2023-07-30T10:55:01;99163.53;;;22.97;50.71
9893;BME280;4985;49.092;8.542;2023-07-30T10:57:30;99166.22;;;22.97;50.70
9893;BME280;4985;49.092;8.542;2023-07-30T10:59:59;99150.94;;;22.98;50.68
9893;BME280;4985;49.092;8.542;2023-07-30T11:02:26;99159.00;;;22.98;50.69
9893;BME280;4985;49.092;8.542;2023-07-30T11:04:53;99164.13;;;22.99;50.68
9893;BME280;4985;49.092;8.542;2023-07-30T11:07:20;99161.47;;;22.99;50.67
9893;BME280;4985;49.092;8.542;2023-07-30T11:09:58;99166.81;;;22.99;50.69
9893;BME280;4985;49.092;8.542;2023-07-30T11:12:25;99168.44;;;23.00;50.72
9893;BME280;4985;49.092;8.542;2023-07-30T11:15:01;99171.13;;;23.00;50.75
9893;BME280;4985;49.092;8.542;2023-07-30T11:17:28;99170.31;;;23.00;50.79
9893;BME280;4985;49.092;8.542;2023-07-30T11:19:54;99163.06;;;23.00;50.78
9893;BME280;4985;49.092;8.542;2023-07-30T11:22:29;99162.00;;;23.01;50.79
9893;BME280;4985;49.092;8.542;2023-07-30T11:24:55;99164.69;;;23.01;50.82
9893;BME280;4985;49.092;8.542;2023-07-30T11:27:22;99167.12;;;23.03;50.82
9893;BME280;4985;49.092;8.542;2023-07-30T11:29:54;99170.87;;;23.02;50.84
9893;BME280;4985;49.092;8.542;2023-07-30T11:32:22;99165.50;;;23.02;50.87
9893;BME280;4985;49.092;8.542;2023-07-30T11:34:51;99170.06;;;23.01;50.87
9893;BME280;4985;49.092;8.542;2023-07-30T11:37:18;99177.06;;;23.02;50.92
9893;BME280;4985;49.092;8.542;2023-07-30T11:39:45;99180.56;;;23.03;50.94
9893;BME280;4985;49.092;8.542;2023-07-30T11:42:11;99182.19;;;23.04;50.95
9893;BME280;4985;49.092;8.542;2023-07-30T11:44:39;99186.50;;;23.05;50.95
9893;BME280;4985;49.092;8.542;2023-07-30T11:47:05;99186.50;;;23.05;50.96
9893;BME280;4985;49.092;8.542;2023-07-30T11:49:33;99183.56;;;23.06;50.95
9893;BME280;4985;49.092;8.542;2023-07-30T11:52:07;99188.91;;;23.06;50.96
9893;BME280;4985;49.092;8.542;2023-07-30T11:54:34;99188.91;;;23.06;50.96
9893;BME280;4985;49.092;8.542;2023-07-30T11:57:00;99191.34;;;23.08;50.94
9893;BME280;4985;49.092;8.542;2023-07-30T11:59:27;99199.41;;;23.08;50.94
9893;BME280;4985;49.092;8.542;2023-07-30T12:01:54;99197.53;;;23.08;50.94
9893;BME280;4985;49.092;8.542;2023-07-30T12:04:21;99184.38;;;23.07;50.94
9893;BME280;4985;49.092;8.542;2023-07-30T12:06:52;99197.53;;;23.08;50.96
9893;BME280;4985;49.092;8.542;2023-07-30T12:09:20;99202.66;;;23.10;50.95
9893;BME280;4985;49.092;8.542;2023-07-30T12:11:49;99192.72;;;23.10;50.98
9893;BME280;4985;49.092;8.542;2023-07-30T12:14:16;99203.47;;;23.10;50.98
9893;BME280;4985;49.092;8.542;2023-07-30T12:16:43;99201.63;;;23.11;51.00
9893;BME280;4985;49.092;8.542;2023-07-30T12:19:09;99204.06;;;23.12;51.00
9893;BME280;4985;49.092;8.542;2023-07-30T12:21:36;99212.12;;;23.12;51.00
9893;BME280;4985;49.092;8.542;2023-07-30T12:24:04;99211.31;;;23.12;50.99
9893;BME280;4985;49.092;8.542;2023-07-30T12:26:31;99212.69;;;23.14;50.98
9893;BME280;4985;49.092;8.542;2023-07-30T12:28:57;99215.34;;;23.14;50.96
9893;BME280;4985;49.092;8.542;2023-07-30T12:31:24;99219.09;;;23.13;50.95
9893;BME280;4985;49.092;8.542;2023-07-30T12:33:51;99227.72;;;23.15;50.96
9893;BME280;4985;49.092;8.542;2023-07-30T12:36:18;99220.47;;;23.16;50.97
9893;BME280;4985;49.092;8.542;2023-07-30T12:38:44;99215.91;;;23.16;50.96
9893;BME280;4985;49.092;8.542;2023-07-30T12:41:12;99230.16;;;23.17;50.95
9893;BME280;4985;49.092;8.542;2023-07-30T12:43:39;99228.28;;;23.17;50.97
9893;BME280;4985;49.092;8.542;2023-07-30T12:46:05;99221.84;;;23.18;50.98
9893;BME280;4985;49.092;8.542;2023-07-30T12:48:32;99231.53;;;23.19;50.99
9893;BME280;4985;49.092;8.542;2023-07-30T12:50:58;99221.59;;;23.20;50.99
9893;BME280;4985;49.092;8.542;2023-07-30T12:53:25;99226.97;;;23.20;51.00
9893;BME280;4985;49.092;8.542;2023-07-30T12:55:51;99228.59;;;23.21;51.01
9893;BME280;4985;49.092;8.542;2023-07-30T12:58:19;99229.41;;;23.21;51.02
9893;BME280;4985;49.092;8.542;2023-07-30T13:00:46;99229.41;;;23.21;51.01
9893;BME280;4985;49.092;8.542;2023-07-30T13:03:12;99242.62;;;23.23;50.99
9893;BME280;4985;49.092;8.542;2023-07-30T13:05:39;99239.94;;;23.23;50.97
9893;BME280;4985;49.092;8.542;2023-07-30T13:08:05;99246.91;;;23.24;50.97
9893;BME280;4985;49.092;8.542;2023-07-30T13:10:32;99234.31;;;23.24;50.93
9893;BME280;4985;49.092;8.542;2023-07-30T13:12:59;99243.72;;;23.27;50.88
9893;BME280;4985;49.092;8.542;2023-07-30T13:15:26;99233.00;;;23.27;50.88
9893;BME280;4985;49.092;8.542;2023-07-30T13:17:53;99238.13;;;23.29;50.86
9893;BME280;4985;49.092;8.542;2023-07-30T13:20:20;99239.97;;;23.28;50.85
9893;BME280;4985;49.092;8.542;2023-07-30T13:22:47;99239.97;;;23.28;50.86